createdAt,value
2017-12-19T00:01:02.987Z,9.10
2017-12-19T00:03:29.257Z,9.93
2017-12-19T00:05:55.573Z,8.63
2017-12-19T00:08:21.852Z,11.97
2017-12-19T00:10:48.878Z,8.63
2017-12-19T00:13:15.128Z,9.77
2017-12-19T00:15:42.144Z,10.27
2017-12-19T00:18:08.417Z,11.60
2017-12-19T00:20:34.679Z,10.73
2017-12-19T00:23:00.955Z,10.93
2017-12-19T00:25:28.123Z,10.00
2017-12-19T00:27:54.514Z,10.13
2017-12-19T00:30:20.785Z,11.97
2017-12-19T00:32:47.088Z,10.43
2017-12-19T00:35:14.093Z,14.17
2017-12-19T00:37:41.202Z,10.37
2017-12-19T00:40:07.493Z,12.23
2017-12-19T00:42:33.820Z,10.53
2017-12-19T00:45:00.099Z,12.30
2017-12-19T00:47:26.375Z,11.80
2017-12-19T00:49:52.645Z,12.20
2017-12-19T00:52:19.688Z,11.33
2017-12-19T00:54:46.703Z,12.17
2017-12-19T00:57:13.007Z,14.47
2017-12-19T00:59:39.297Z,13.73
2017-12-19T01:02:06.320Z,11.03
2017-12-19T01:04:32.578Z,11.80
2017-12-19T01:06:58.870Z,11.40
2017-12-19T01:09:25.117Z,12.00
2017-12-19T01:11:51.418Z,14.27
2017-12-19T01:14:17.693Z,11.85
2017-12-19T01:16:44.686Z,13.03
2017-12-19T01:19:10.946Z,13.03
2017-12-19T01:21:37.275Z,14.00
2017-12-19T01:24:03.535Z,12.47
2017-12-19T01:26:29.805Z,20.80
2017-12-19T01:28:56.059Z,14.23
2017-12-19T01:31:22.422Z,19.60
2017-12-19T01:33:48.710Z,15.47
2017-12-19T01:36:14.963Z,15.83
2017-12-19T01:38:42.063Z,15.67
2017-12-19T01:41:08.303Z,14.00
2017-12-19T01:43:34.602Z,14.50
2017-12-19T01:46:00.848Z,14.63
2017-12-19T01:48:27.118Z,19.63
2017-12-19T01:50:53.489Z,17.57
2017-12-19T01:53:19.743Z,17.90
2017-12-19T01:55:45.968Z,18.33
2017-12-19T01:58:12.233Z,17.07
2017-12-19T02:00:38.506Z,20.00
2017-12-19T02:03:04.757Z,19.10
2017-12-19T02:05:31.017Z,16.70
2017-12-19T02:07:57.281Z,19.33
2017-12-19T02:10:23.509Z,20.27
2017-12-19T02:12:49.777Z,23.10
2017-12-19T02:15:16.084Z,23.93
2017-12-19T02:17:42.371Z,23.20
2017-12-19T02:20:08.649Z,28.70
2017-12-19T02:22:34.949Z,23.17
2017-12-19T02:25:01.949Z,23.40
2017-12-19T02:27:28.285Z,29.87
2017-12-19T02:29:54.702Z,26.53
2017-12-19T02:32:20.971Z,26.03
2017-12-19T02:34:47.981Z,26.03
2017-12-19T02:37:14.288Z,28.20
2017-12-19T02:39:40.585Z,30.40
2017-12-19T02:42:07.705Z,23.23
2017-12-19T02:44:34.000Z,24.87
2017-12-19T02:47:00.360Z,27.37
2017-12-19T02:49:26.655Z,27.23
2017-12-19T02:51:52.923Z,27.27
2017-12-19T02:54:19.503Z,28.20
2017-12-19T02:56:45.764Z,28.23
2017-12-19T02:59:12.060Z,28.43
2017-12-19T03:01:38.366Z,27.13
2017-12-19T03:04:04.889Z,26.90
2017-12-19T03:06:31.161Z,26.90
2017-12-19T03:08:57.456Z,30.60
2017-12-19T03:11:23.712Z,28.30
2017-12-19T03:13:49.992Z,27.63
2017-12-19T03:16:16.264Z,31.83
2017-12-19T03:18:43.342Z,34.20
2017-12-19T03:21:09.699Z,28.13
2017-12-19T03:23:35.977Z,29.20
2017-12-19T03:26:02.991Z,29.70
2017-12-19T03:28:29.288Z,33.30
2017-12-19T03:30:55.606Z,31.70
2017-12-19T03:33:21.885Z,32.27
2017-12-19T03:35:48.162Z,29.97
2017-12-19T03:38:14.402Z,31.27
2017-12-19T03:40:40.705Z,32.40
2017-12-19T03:43:06.973Z,29.93
2017-12-19T03:45:33.252Z,33.47
2017-12-19T03:48:00.880Z,30.70
2017-12-19T03:50:27.178Z,32.67
2017-12-19T03:52:53.431Z,29.20
2017-12-19T03:55:19.698Z,33.80
2017-12-19T03:57:46.707Z,32.57
2017-12-19T04:00:13.133Z,34.07
2017-12-19T04:02:39.433Z,32.33
2017-12-19T04:05:05.737Z,37.57
2017-12-19T04:07:32.761Z,34.10
2017-12-19T04:09:59.040Z,34.30
2017-12-19T04:12:25.313Z,30.27
2017-12-19T04:14:51.621Z,32.53
2017-12-19T04:17:17.921Z,30.97
2017-12-19T04:19:44.208Z,31.57
2017-12-19T04:22:10.564Z,32.00
2017-12-19T04:24:37.594Z,41.10
2017-12-19T04:27:03.886Z,40.13
2017-12-19T04:29:30.195Z,37.67
2017-12-19T04:31:56.463Z,37.90
2017-12-19T04:34:22.764Z,35.57
2017-12-19T04:36:49.041Z,33.33
2017-12-19T04:39:15.331Z,37.43
2017-12-19T04:41:41.603Z,35.43
2017-12-19T04:44:07.896Z,36.20
2017-12-19T04:46:34.163Z,35.63
2017-12-19T04:49:00.494Z,39.78
2017-12-19T04:51:26.845Z,38.53
2017-12-19T04:53:53.855Z,42.43
2017-12-19T04:56:20.129Z,38.90
2017-12-19T04:58:47.147Z,44.50
2017-12-19T05:01:13.440Z,43.57
2017-12-19T05:03:39.732Z,46.33
2017-12-19T05:06:06.002Z,48.10
2017-12-19T05:08:32.340Z,54.27
2017-12-19T05:10:58.600Z,47.90
2017-12-19T05:13:24.894Z,50.90
2017-12-19T05:15:51.920Z,59.03
2017-12-19T05:18:18.209Z,57.50
2017-12-19T05:20:44.505Z,70.33
2017-12-19T05:23:10.779Z,56.87
2017-12-19T05:25:37.829Z,59.43
2017-12-19T05:28:04.873Z,66.90
2017-12-19T05:30:31.914Z,57.43
2017-12-19T05:32:58.935Z,58.67
2017-12-19T05:35:25.261Z,59.43
2017-12-19T05:37:51.556Z,65.00
2017-12-19T05:40:17.946Z,65.87
2017-12-19T05:42:44.248Z,76.77
2017-12-19T05:45:10.793Z,72.97
2017-12-19T05:47:37.070Z,69.47
2017-12-19T05:50:03.364Z,74.53
2017-12-19T05:52:29.635Z,75.97
2017-12-19T05:54:55.939Z,74.43
2017-12-19T05:57:22.962Z,72.67
2017-12-19T05:59:49.232Z,69.00
2017-12-19T06:02:15.745Z,67.03
2017-12-19T06:04:42.766Z,73.20
2017-12-19T06:07:09.070Z,67.90
2017-12-19T06:09:35.371Z,68.00
2017-12-19T06:12:02.448Z,69.50
2017-12-19T06:14:28.784Z,72.87
2017-12-19T06:16:55.095Z,71.47
2017-12-19T06:19:21.359Z,93.80
2017-12-19T06:21:47.668Z,77.20
2017-12-19T06:24:14.011Z,84.00
2017-12-19T06:26:40.317Z,81.50
2017-12-19T06:29:06.688Z,79.77
2017-12-19T06:31:32.965Z,76.97
2017-12-19T06:33:59.239Z,79.77
2017-12-19T06:36:25.532Z,79.30
2017-12-19T06:38:51.812Z,90.73
2017-12-19T06:43:51.848Z,87.77
2017-12-19T06:46:18.141Z,78.33
2017-12-19T06:48:44.425Z,83.87
2017-12-19T06:51:11.438Z,86.03
2017-12-19T06:53:37.725Z,78.80
2017-12-19T06:56:04.008Z,106.07
2017-12-19T06:58:30.284Z,97.40
2017-12-19T07:00:56.580Z,91.30
2017-12-19T07:03:23.594Z,80.00
2017-12-19T07:05:49.863Z,81.40
2017-12-19T07:08:16.909Z,92.47
2017-12-19T07:10:43.201Z,87.50
2017-12-19T07:13:09.466Z,87.03
2017-12-19T07:15:35.730Z,87.67
2017-12-19T07:18:02.007Z,97.33
2017-12-19T07:20:28.472Z,90.33
2017-12-19T07:22:55.493Z,99.53
2017-12-19T07:25:21.798Z,110.93
2017-12-19T07:27:48.163Z,110.30
2017-12-19T07:30:14.448Z,105.93
2017-12-19T07:32:40.761Z,106.77
2017-12-19T07:35:07.076Z,113.97
2017-12-19T07:37:34.091Z,114.60
2017-12-19T07:40:00.421Z,94.60
2017-12-19T07:42:26.680Z,107.50
2017-12-19T07:44:53.698Z,107.07
2017-12-19T07:47:19.992Z,100.67
2017-12-19T07:49:46.262Z,120.47
2017-12-19T07:52:12.578Z,118.27
2017-12-19T07:54:38.872Z,122.07
2017-12-19T07:57:05.165Z,131.43
2017-12-19T07:59:32.158Z,110.37
2017-12-19T08:01:58.451Z,105.50
2017-12-19T08:04:25.476Z,129.47
2017-12-19T08:06:51.764Z,109.97
2017-12-19T08:09:18.045Z,108.33
2017-12-19T08:11:45.048Z,111.27
2017-12-19T08:14:11.367Z,102.67
2017-12-19T08:16:37.641Z,122.83
2017-12-19T08:19:03.948Z,127.30
2017-12-19T08:21:30.189Z,123.83
2017-12-19T08:23:56.565Z,134.93
2017-12-19T08:26:37.823Z,113.17
2017-12-19T08:29:04.866Z,122.87
2017-12-19T08:31:31.878Z,114.93
2017-12-19T08:33:58.148Z,98.10
2017-12-19T08:36:25.127Z,129.83
2017-12-19T08:38:51.499Z,97.33
2017-12-19T08:41:17.743Z,88.50
2017-12-19T08:43:43.995Z,90.13
2017-12-19T08:46:10.993Z,101.07
2017-12-19T08:48:37.250Z,117.43
2017-12-19T08:51:03.499Z,84.43
2017-12-19T08:53:30.517Z,72.67
2017-12-19T08:55:56.747Z,78.47
2017-12-19T08:58:23.025Z,85.10
2017-12-19T09:00:49.271Z,78.87
2017-12-19T09:03:15.545Z,86.87
2017-12-19T09:05:42.533Z,74.00
2017-12-19T09:08:08.787Z,80.37
2017-12-19T09:10:35.037Z,78.40
2017-12-19T09:13:01.311Z,65.90
2017-12-19T09:15:27.572Z,70.40
2017-12-19T09:17:53.820Z,77.63
2017-12-19T09:20:20.068Z,68.83
2017-12-19T09:22:46.320Z,76.50
2017-12-19T09:25:12.551Z,66.13
2017-12-19T09:27:38.989Z,63.23
2017-12-19T09:30:05.263Z,55.57
2017-12-19T09:32:31.519Z,53.43
2017-12-19T09:34:58.553Z,45.73
2017-12-19T09:37:24.808Z,52.17
2017-12-19T09:39:51.784Z,49.07
2017-12-19T09:42:18.074Z,44.30
2017-12-19T09:44:45.071Z,43.50
2017-12-19T09:47:11.310Z,37.97
2017-12-19T09:52:11.231Z,37.10
2017-12-19T09:54:37.493Z,37.87
2017-12-19T09:57:03.821Z,35.93
2017-12-19T09:59:30.106Z,38.33
2017-12-19T10:01:56.339Z,41.30
2017-12-19T10:04:22.638Z,28.07
2017-12-19T10:06:48.877Z,36.80
2017-12-19T10:09:15.150Z,31.53
2017-12-19T10:11:41.376Z,34.27
2017-12-19T10:14:07.644Z,34.43
2017-12-19T10:16:34.624Z,31.47
2017-12-19T10:19:00.901Z,32.30
2017-12-19T10:21:27.184Z,38.53
2017-12-19T10:23:53.497Z,31.27
2017-12-19T10:26:19.763Z,38.77
2017-12-19T10:28:46.065Z,34.83
2017-12-19T10:31:12.324Z,36.17
2017-12-19T10:33:38.628Z,39.57
2017-12-19T10:36:04.884Z,41.60
2017-12-19T10:38:31.407Z,37.70
2017-12-19T10:40:57.739Z,39.00
2017-12-19T10:43:24.128Z,41.77
2017-12-19T10:45:51.107Z,37.57
2017-12-19T10:48:17.367Z,42.57
2017-12-19T10:50:43.610Z,50.60
2017-12-19T10:53:09.871Z,43.10
2017-12-19T10:55:36.117Z,41.40
2017-12-19T10:58:02.380Z,46.60
2017-12-19T11:00:28.617Z,34.00
2017-12-19T11:02:54.870Z,47.23
2017-12-19T11:05:21.857Z,44.73
2017-12-19T11:07:48.164Z,42.30
2017-12-19T11:10:14.415Z,40.43
2017-12-19T11:12:40.662Z,33.20
2017-12-19T11:15:07.017Z,30.00
2017-12-19T11:17:33.307Z,41.07
2017-12-19T11:19:59.568Z,33.23
2017-12-19T11:22:25.844Z,36.60
2017-12-19T11:24:52.119Z,40.37
2017-12-19T11:27:18.371Z,43.37
2017-12-19T11:29:45.447Z,43.60
2017-12-19T11:32:11.695Z,53.67
2017-12-19T11:34:37.964Z,44.87
2017-12-19T11:37:04.231Z,44.90
2017-12-19T11:39:30.519Z,44.27
2017-12-19T11:41:56.780Z,43.37
2017-12-19T11:44:23.786Z,38.33
2017-12-19T11:46:50.057Z,47.10
2017-12-19T11:49:17.079Z,37.60
2017-12-19T11:51:43.343Z,34.10
2017-12-19T11:54:09.619Z,37.23
2017-12-19T11:56:35.974Z,34.00
2017-12-19T11:59:02.224Z,49.67
2017-12-19T12:01:28.491Z,36.93
2017-12-19T12:03:54.739Z,41.07
2017-12-19T12:06:21.017Z,40.77
2017-12-19T12:08:47.256Z,36.60
2017-12-19T12:11:13.519Z,33.90
2017-12-19T12:13:39.804Z,39.77
2017-12-19T12:16:06.082Z,36.97
2017-12-19T12:18:32.331Z,42.40
2017-12-19T12:20:58.595Z,34.30
2017-12-19T12:23:24.960Z,40.53
2017-12-19T12:25:51.227Z,38.63
2017-12-19T12:28:18.211Z,45.43
2017-12-19T12:30:44.521Z,35.07
2017-12-19T12:33:11.561Z,41.67
2017-12-19T12:35:38.627Z,42.93
2017-12-19T12:38:04.884Z,35.20
2017-12-19T12:40:31.167Z,40.10
2017-12-19T12:42:58.281Z,42.60
2017-12-19T12:45:24.598Z,52.60
2017-12-19T12:47:50.864Z,40.83
2017-12-19T12:50:17.948Z,43.83
2017-12-19T12:52:44.171Z,37.47
2017-12-19T12:55:10.443Z,36.03
2017-12-19T12:57:36.725Z,35.03
2017-12-19T13:00:03.008Z,42.30
2017-12-19T13:02:29.269Z,46.50
2017-12-19T13:04:56.271Z,37.27
2017-12-19T13:07:22.534Z,40.13
2017-12-19T13:09:49.626Z,44.07
2017-12-19T13:12:15.878Z,49.83
2017-12-19T13:14:42.140Z,37.20
2017-12-19T13:17:09.277Z,39.87
2017-12-19T13:19:35.543Z,41.67
2017-12-19T13:22:01.773Z,45.53
2017-12-19T13:24:28.022Z,41.13
2017-12-19T13:26:54.264Z,39.50
2017-12-19T13:29:20.879Z,42.07
2017-12-19T13:31:47.112Z,38.80
2017-12-19T13:34:13.369Z,37.67
2017-12-19T13:36:39.607Z,43.70
2017-12-19T13:39:05.855Z,37.20
2017-12-19T13:41:32.187Z,37.87
2017-12-19T13:43:59.185Z,62.97
2017-12-19T13:46:25.499Z,41.00
2017-12-19T13:48:51.793Z,29.73
2017-12-19T13:51:18.084Z,50.00
2017-12-19T13:53:44.445Z,41.67
2017-12-19T13:56:10.702Z,37.03
2017-12-19T13:58:37.695Z,37.30
2017-12-19T14:01:03.943Z,45.07
2017-12-19T14:03:30.192Z,44.13
2017-12-19T14:05:57.180Z,43.43
2017-12-19T14:08:23.408Z,44.20
2017-12-19T14:10:49.670Z,38.50
2017-12-19T14:13:15.997Z,46.40
2017-12-19T14:15:42.267Z,37.30
2017-12-19T14:18:09.269Z,49.03
2017-12-19T14:20:35.512Z,47.40
2017-12-19T14:23:01.799Z,50.33
2017-12-19T14:25:28.830Z,42.53
2017-12-19T14:27:55.068Z,47.37
2017-12-19T14:30:21.331Z,45.23
2017-12-19T14:32:47.624Z,50.03
2017-12-19T14:35:13.867Z,47.03
2017-12-19T14:37:40.135Z,46.43
2017-12-19T14:40:06.378Z,40.90
2017-12-19T14:42:33.458Z,39.70
2017-12-19T14:44:59.972Z,50.27
2017-12-19T14:47:26.964Z,36.50
2017-12-19T14:49:53.220Z,42.13
2017-12-19T14:52:19.458Z,45.03
2017-12-19T14:54:45.726Z,42.67
2017-12-19T14:57:11.976Z,32.43
2017-12-19T14:59:38.255Z,42.73
2017-12-19T15:02:05.235Z,43.50
2017-12-19T15:04:31.490Z,41.93
2017-12-19T15:06:57.727Z,42.47
2017-12-19T15:09:24.012Z,37.60
2017-12-19T15:11:50.407Z,43.17
2017-12-19T15:14:17.099Z,50.77
2017-12-19T15:16:43.385Z,54.77
2017-12-19T15:19:09.624Z,49.70
2017-12-19T15:21:36.611Z,48.67
2017-12-19T15:24:02.907Z,57.23
2017-12-19T15:26:29.145Z,45.63
2017-12-19T15:28:55.455Z,40.60
2017-12-19T15:31:22.446Z,41.33
2017-12-19T15:33:48.838Z,53.17
2017-12-19T15:36:15.839Z,46.47
2017-12-19T15:38:42.109Z,48.70
2017-12-19T15:41:09.091Z,52.20
2017-12-19T15:43:35.353Z,61.43
2017-12-19T15:46:01.624Z,60.90
2017-12-19T15:48:27.901Z,64.03
2017-12-19T15:50:54.557Z,67.23
2017-12-19T15:53:21.801Z,60.37
2017-12-19T15:55:48.019Z,63.87
2017-12-19T15:58:14.277Z,59.77
2017-12-19T16:00:40.555Z,54.73
2017-12-19T16:03:06.807Z,52.23
2017-12-19T16:05:33.059Z,70.23
2017-12-19T16:07:59.287Z,65.93
2017-12-19T16:10:25.608Z,55.60
2017-12-19T16:12:51.846Z,64.60
2017-12-19T16:15:18.133Z,77.63
2017-12-19T16:17:44.435Z,66.93
2017-12-19T16:20:10.692Z,67.23
2017-12-19T16:22:37.209Z,76.80
2017-12-19T16:25:03.500Z,72.83
2017-12-19T16:27:29.767Z,83.23
2017-12-19T16:29:56.068Z,63.10
2017-12-19T16:32:23.069Z,75.70
2017-12-19T16:34:49.333Z,73.00
2017-12-19T16:37:15.567Z,78.03
2017-12-19T16:39:41.843Z,71.70
2017-12-19T16:42:08.093Z,78.20
2017-12-19T16:44:34.360Z,65.63
2017-12-19T16:47:01.327Z,92.43
2017-12-19T16:49:27.601Z,76.23
2017-12-19T16:51:53.846Z,84.33
2017-12-19T16:54:20.112Z,85.97
2017-12-19T16:56:46.344Z,96.67
2017-12-19T16:59:12.618Z,82.40
2017-12-19T17:01:38.868Z,84.77
2017-12-19T17:04:05.125Z,88.87
2017-12-19T17:06:31.368Z,73.23
2017-12-19T17:08:57.620Z,85.83
2017-12-19T17:11:23.872Z,69.20
2017-12-19T17:13:50.133Z,84.30
2017-12-19T17:16:17.133Z,91.73
2017-12-19T17:18:43.377Z,97.70
2017-12-19T17:21:09.616Z,101.57
2017-12-19T17:23:35.871Z,103.43
2017-12-19T17:26:02.107Z,94.23
2017-12-19T17:28:28.376Z,97.53
2017-12-19T17:30:56.280Z,95.37
2017-12-19T17:33:23.359Z,108.13
2017-12-19T17:35:49.620Z,92.63
2017-12-19T17:38:16.016Z,85.47
2017-12-19T17:40:42.265Z,102.97
2017-12-19T17:43:08.529Z,100.17
2017-12-19T17:45:34.779Z,102.73
2017-12-19T17:48:01.778Z,96.43
2017-12-19T17:50:28.010Z,74.73
2017-12-19T17:52:55.055Z,104.23
2017-12-19T17:55:21.309Z,93.47
2017-12-19T17:57:47.572Z,90.10
2017-12-19T18:00:13.849Z,79.57
2017-12-19T18:02:40.120Z,97.37
2017-12-19T18:05:07.119Z,75.33
2017-12-19T18:07:33.366Z,83.30
2017-12-19T18:09:59.615Z,92.37
2017-12-19T18:12:26.765Z,73.13
2017-12-19T18:14:53.051Z,73.13
2017-12-19T18:17:19.365Z,67.87
2017-12-19T18:19:45.652Z,89.53
2017-12-19T18:22:11.878Z,91.53
2017-12-19T18:24:38.150Z,82.63
2017-12-19T18:27:04.388Z,84.87
2017-12-19T18:29:30.674Z,82.40
2017-12-19T18:31:57.657Z,88.10
2017-12-19T18:34:23.928Z,91.80
2017-12-19T18:36:50.383Z,87.60
2017-12-19T18:39:17.368Z,86.80
2017-12-19T18:41:43.622Z,80.33
2017-12-19T18:44:09.879Z,80.07
2017-12-19T18:46:36.114Z,87.33
2017-12-19T18:49:03.311Z,86.00
2017-12-19T18:51:29.551Z,72.77
2017-12-19T18:53:56.108Z,85.10
2017-12-19T18:56:22.352Z,71.57
2017-12-19T18:58:49.580Z,86.63
2017-12-19T19:01:15.816Z,73.33
2017-12-19T19:03:42.136Z,84.33
2017-12-19T19:06:08.663Z,69.90
2017-12-19T19:08:34.911Z,66.43
2017-12-19T19:11:01.194Z,67.53
2017-12-19T19:13:27.960Z,70.50
2017-12-19T19:15:54.271Z,82.27
2017-12-19T19:18:20.541Z,72.07
2017-12-19T19:20:46.870Z,70.63
2017-12-19T19:23:13.107Z,62.57
2017-12-19T19:25:39.365Z,72.50
2017-12-19T19:28:05.908Z,77.43
2017-12-19T19:30:32.218Z,65.10
2017-12-19T19:32:59.187Z,70.17
2017-12-19T19:35:25.438Z,65.60
2017-12-19T19:37:51.779Z,77.93
2017-12-19T19:40:18.058Z,84.23
2017-12-19T19:42:45.039Z,83.47
2017-12-19T19:45:11.339Z,67.93
2017-12-19T19:47:38.309Z,82.40
2017-12-19T19:50:04.557Z,62.13
2017-12-19T19:52:30.858Z,59.07
2017-12-19T19:54:57.139Z,67.90
2017-12-19T19:57:23.559Z,82.27
2017-12-19T19:59:49.876Z,82.27
2017-12-19T20:02:16.132Z,68.70
2017-12-19T20:04:42.423Z,62.30
2017-12-19T20:07:09.187Z,65.57
2017-12-19T20:09:35.417Z,70.63
2017-12-19T20:12:02.478Z,77.53
2017-12-19T20:14:28.733Z,67.87
2017-12-19T20:16:55.775Z,83.23
2017-12-19T20:19:22.892Z,66.97
2017-12-19T20:21:49.148Z,63.90
2017-12-19T20:24:16.123Z,71.93
2017-12-19T20:26:42.389Z,59.10
2017-12-19T20:29:08.646Z,61.93
2017-12-19T20:31:34.919Z,75.63
2017-12-19T20:34:01.142Z,71.60
2017-12-19T20:36:27.409Z,77.67
2017-12-19T20:38:53.717Z,70.87
2017-12-19T20:41:20.040Z,68.10
2017-12-19T20:43:46.258Z,67.63
2017-12-19T20:46:12.558Z,64.73
2017-12-19T20:48:39.547Z,78.30
2017-12-19T20:51:05.800Z,68.27
2017-12-19T20:53:32.010Z,66.57
2017-12-19T20:55:58.271Z,89.17
2017-12-19T20:58:24.498Z,88.37
2017-12-19T21:00:50.767Z,79.47
2017-12-19T21:03:17.011Z,64.13
2017-12-19T21:05:43.265Z,70.60
2017-12-19T21:08:09.488Z,76.63
2017-12-19T21:10:35.749Z,73.23
2017-12-19T21:13:01.966Z,78.23
2017-12-19T21:15:28.225Z,74.63
2017-12-19T21:17:55.209Z,64.93
2017-12-19T21:20:21.470Z,82.57
2017-12-19T21:22:47.699Z,77.87
2017-12-19T21:25:13.962Z,103.63
2017-12-19T21:27:40.941Z,87.53
2017-12-19T21:30:07.210Z,92.80
2017-12-19T21:32:33.473Z,77.13
2017-12-19T21:34:59.733Z,78.60
2017-12-19T21:37:25.972Z,78.30
2017-12-19T21:39:52.222Z,93.47
2017-12-19T21:42:18.492Z,83.77
2017-12-19T21:44:44.981Z,80.13
2017-12-19T21:47:11.228Z,104.37
2017-12-19T21:49:37.486Z,90.03
2017-12-19T21:52:03.722Z,73.47
2017-12-19T21:54:29.960Z,82.10
2017-12-19T21:56:56.234Z,75.07
2017-12-19T21:59:22.521Z,83.87
2017-12-19T22:01:48.745Z,98.77
2017-12-19T22:04:14.980Z,89.10
2017-12-19T22:06:41.251Z,90.93
2017-12-19T22:09:07.520Z,93.40
2017-12-19T22:11:33.769Z,96.13
2017-12-19T22:14:00.054Z,95.60
2017-12-19T22:16:26.516Z,80.27
2017-12-19T22:18:53.523Z,101.17
2017-12-19T22:21:20.885Z,88.00
2017-12-19T22:23:47.883Z,101.13
2017-12-19T22:26:14.154Z,85.47
2017-12-19T22:28:40.418Z,94.73
2017-12-19T22:31:06.720Z,97.07
2017-12-19T22:33:32.989Z,94.87
2017-12-19T22:35:59.380Z,103.30
2017-12-19T22:38:26.382Z,98.30
2017-12-19T22:40:52.626Z,92.67
2017-12-19T22:43:18.910Z,95.47
2017-12-19T22:45:45.149Z,101.13
2017-12-19T22:48:11.397Z,91.43
2017-12-19T22:50:37.647Z,88.10
2017-12-19T22:53:03.888Z,75.33
2017-12-19T22:55:30.174Z,80.13
2017-12-19T22:57:56.423Z,74.83
2017-12-19T23:00:22.699Z,76.03
2017-12-19T23:02:49.705Z,76.23
2017-12-19T23:05:15.975Z,76.80
2017-12-19T23:07:42.949Z,77.53
2017-12-19T23:10:09.195Z,67.13
2017-12-19T23:12:35.443Z,75.40
2017-12-19T23:15:01.708Z,70.70
2017-12-19T23:17:28.688Z,73.33
2017-12-19T23:19:54.931Z,71.43
2017-12-19T23:22:21.164Z,56.60
2017-12-19T23:24:47.434Z,56.70
2017-12-19T23:27:14.429Z,61.57
2017-12-19T23:29:41.689Z,69.90
2017-12-19T23:32:07.934Z,62.30
2017-12-19T23:34:34.180Z,59.97
2017-12-19T23:37:00.425Z,66.07
2017-12-19T23:39:26.731Z,57.07
2017-12-19T23:41:52.966Z,56.03
2017-12-19T23:44:19.263Z,62.83
2017-12-19T23:46:45.523Z,59.67
2017-12-19T23:49:11.751Z,56.10
2017-12-19T23:51:38.005Z,53.40
2017-12-19T23:54:04.295Z,56.43
2017-12-19T23:56:30.523Z,57.63
2017-12-19T23:58:56.783Z,52.13
